sensor_id;sensor_type;location;lat;lon;timestamp;P1;durP1;ratioP1;P2;durP2;ratioP2
69750;SDS011;57335;52.288;6.056;2023-04-24T00:00:30;3.72;;;1.73;;
69750;SDS011;57335;52.288;6.056;2023-04-24T00:02:57;4.47;;;1.60;;
69750;SDS011;57335;52.288;6.056;2023-04-24T00:05:24;5.38;;;1.60;;
69750;SDS011;57335;52.288;6.056;2023-04-24T00:07:50;3.63;;;1.50;;
69750;SDS011;57335;52.288;6.056;2023-04-24T00:10:17;5.88;;;1.75;;
69750;SDS011;57335;52.288;6.056;2023-04-24T00:12:43;5.35;;;2.10;;
69750;SDS011;57335;52.288;6.056;2023-04-24T00:15:10;5.38;;;2.05;;
69750;SDS011;57335;52.288;6.056;2023-04-24T00:17:37;5.85;;;2.10;;
69750;SDS011;57335;52.288;6.056;2023-04-24T00:20:04;6.20;;;1.95;;
69750;SDS011;57335;52.288;6.056;2023-04-24T00:22:31;5.78;;;2.08;;
69750;SDS011;57335;52.288;6.056;2023-04-24T00:24:57;5.57;;;2.15;;
69750;SDS011;57335;52.288;6.056;2023-04-24T00:27:24;6.20;;;2.28;;
69750;SDS011;57335;52.288;6.056;2023-04-24T00:29:50;7.93;;;2.15;;
69750;SDS011;57335;52.288;6.056;2023-04-24T00:32:16;5.85;;;1.92;;
69750;SDS011;57335;52.288;6.056;2023-04-24T00:34:43;7.82;;;2.53;;
69750;SDS011;57335;52.288;6.056;2023-04-24T00:37:09;6.93;;;2.40;;
69750;SDS011;57335;52.288;6.056;2023-04-24T00:39:36;5.95;;;2.05;;
69750;SDS011;57335;52.288;6.056;2023-04-24T00:42:02;5.90;;;2.25;;
69750;SDS011;57335;52.288;6.056;2023-04-24T00:44:29;7.22;;;2.83;;
69750;SDS011;57335;52.288;6.056;2023-04-24T00:46:55;7.00;;;2.60;;
69750;SDS011;57335;52.288;6.056;2023-04-24T00:49:22;8.40;;;2.97;;
69750;SDS011;57335;52.288;6.056;2023-04-24T00:51:49;7.95;;;3.05;;
69750;SDS011;57335;52.288;6.056;2023-04-24T00:54:16;6.82;;;2.75;;
69750;SDS011;57335;52.288;6.056;2023-04-24T00:56:42;8.10;;;3.15;;
69750;SDS011;57335;52.288;6.056;2023-04-24T00:59:13;8.38;;;3.38;;
69750;SDS011;57335;52.288;6.056;2023-04-24T01:01:41;8.32;;;3.05;;
69750;SDS011;57335;52.288;6.056;2023-04-24T01:04:09;8.30;;;3.33;;
69750;SDS011;57335;52.288;6.056;2023-04-24T01:06:39;8.43;;;3.30;;
69750;SDS011;57335;52.288;6.056;2023-04-24T01:09:06;8.20;;;3.42;;
69750;SDS011;57335;52.288;6.056;2023-04-24T01:11:33;8.65;;;3.67;;
69750;SDS011;57335;52.288;6.056;2023-04-24T01:13:59;9.13;;;3.72;;
69750;SDS011;57335;52.288;6.056;2023-04-24T01:16:27;7.82;;;3.42;;
69750;SDS011;57335;52.288;6.056;2023-04-24T01:18:53;8.23;;;3.38;;
69750;SDS011;57335;52.288;6.056;2023-04-24T01:21:20;10.02;;;3.60;;
69750;SDS011;57335;52.288;6.056;2023-04-24T01:23:47;8.57;;;3.60;;
69750;SDS011;57335;52.288;6.056;2023-04-24T01:26:14;8.25;;;3.53;;
69750;SDS011;57335;52.288;6.056;2023-04-24T01:28:42;8.50;;;3.53;;
69750;SDS011;57335;52.288;6.056;2023-04-24T01:31:09;9.20;;;3.55;;
69750;SDS011;57335;52.288;6.056;2023-04-24T01:33:35;8.95;;;3.63;;
69750;SDS011;57335;52.288;6.056;2023-04-24T01:36:01;7.57;;;3.17;;
69750;SDS011;57335;52.288;6.056;2023-04-24T01:38:28;8.75;;;3.42;;
69750;SDS011;57335;52.288;6.056;2023-04-24T01:40:55;7.70;;;3.20;;
69750;SDS011;57335;52.288;6.056;2023-04-24T01:43:21;8.65;;;3.35;;
69750;SDS011;57335;52.288;6.056;2023-04-24T01:45:48;7.70;;;3.20;;
69750;SDS011;57335;52.288;6.056;2023-04-24T01:48:14;8.55;;;3.55;;
69750;SDS011;57335;52.288;6.056;2023-04-24T01:50:40;8.65;;;3.53;;
69750;SDS011;57335;52.288;6.056;2023-04-24T01:53:07;10.77;;;3.90;;
69750;SDS011;57335;52.288;6.056;2023-04-24T01:55:33;8.95;;;3.47;;
69750;SDS011;57335;52.288;6.056;2023-04-24T01:58:00;9.05;;;3.85;;
69750;SDS011;57335;52.288;6.056;2023-04-24T02:00:27;8.48;;;3.30;;
69750;SDS011;57335;52.288;6.056;2023-04-24T02:02:53;8.32;;;3.72;;
69750;SDS011;57335;52.288;6.056;2023-04-24T02:05:20;8.95;;;3.70;;
69750;SDS011;57335;52.288;6.056;2023-04-24T02:07:46;9.20;;;3.75;;
69750;SDS011;57335;52.288;6.056;2023-04-24T02:10:12;12.18;;;4.63;;
69750;SDS011;57335;52.288;6.056;2023-04-24T02:12:39;11.02;;;4.70;;
69750;SDS011;57335;52.288;6.056;2023-04-24T02:15:05;9.48;;;3.75;;
69750;SDS011;57335;52.288;6.056;2023-04-24T02:17:32;10.05;;;4.00;;
69750;SDS011;57335;52.288;6.056;2023-04-24T02:19:58;10.82;;;4.13;;
69750;SDS011;57335;52.288;6.056;2023-04-24T02:22:25;10.68;;;4.38;;
69750;SDS011;57335;52.288;6.056;2023-04-24T02:24:51;10.43;;;4.15;;
69750;SDS011;57335;52.288;6.056;2023-04-24T02:27:17;9.45;;;4.03;;
69750;SDS011;57335;52.288;6.056;2023-04-24T02:29:44;10.20;;;4.25;;
69750;SDS011;57335;52.288;6.056;2023-04-24T02:32:10;9.80;;;3.92;;
69750;SDS011;57335;52.288;6.056;2023-04-24T02:34:37;10.85;;;4.18;;
69750;SDS011;57335;52.288;6.056;2023-04-24T02:37:04;9.82;;;3.85;;
69750;SDS011;57335;52.288;6.056;2023-04-24T02:39:30;9.70;;;3.95;;
69750;SDS011;57335;52.288;6.056;2023-04-24T02:41:56;10.27;;;4.05;;
69750;SDS011;57335;52.288;6.056;2023-04-24T02:44:23;12.60;;;4.88;;
69750;SDS011;57335;52.288;6.056;2023-04-24T02:46:49;11.85;;;4.90;;
69750;SDS011;57335;52.288;6.056;2023-04-24T02:49:15;12.05;;;4.93;;
69750;SDS011;57335;52.288;6.056;2023-04-24T02:51:42;12.27;;;4.82;;
69750;SDS011;57335;52.288;6.056;2023-04-24T02:54:08;12.82;;;4.82;;
69750;SDS011;57335;52.288;6.056;2023-04-24T02:56:35;12.90;;;4.85;;
69750;SDS011;57335;52.288;6.056;2023-04-24T02:59:02;12.25;;;5.05;;
69750;SDS011;57335;52.288;6.056;2023-04-24T03:01:28;11.52;;;4.72;;
69750;SDS011;57335;52.288;6.056;2023-04-24T03:03:54;11.20;;;4.53;;
69750;SDS011;57335;52.288;6.056;2023-04-24T03:06:21;11.70;;;4.55;;
69750;SDS011;57335;52.288;6.056;2023-04-24T03:08:48;10.25;;;3.85;;
69750;SDS011;57335;52.288;6.056;2023-04-24T03:11:14;11.02;;;4.07;;
69750;SDS011;57335;52.288;6.056;2023-04-24T03:13:41;14.13;;;3.60;;
69750;SDS011;57335;52.288;6.056;2023-04-24T03:16:07;7.90;;;3.20;;
69750;SDS011;57335;52.288;6.056;2023-04-24T03:18:33;7.57;;;2.67;;
69750;SDS011;57335;52.288;6.056;2023-04-24T03:21:00;8.65;;;2.95;;
69750;SDS011;57335;52.288;6.056;2023-04-24T03:23:26;8.95;;;2.92;;
69750;SDS011;57335;52.288;6.056;2023-04-24T03:25:53;8.70;;;3.33;;
69750;SDS011;57335;52.288;6.056;2023-04-24T03:28:19;8.82;;;3.00;;
69750;SDS011;57335;52.288;6.056;2023-04-24T03:30:45;8.93;;;3.08;;
69750;SDS011;57335;52.288;6.056;2023-04-24T03:33:12;10.52;;;3.53;;
69750;SDS011;57335;52.288;6.056;2023-04-24T03:35:38;9.93;;;3.55;;
69750;SDS011;57335;52.288;6.056;2023-04-24T03:38:05;11.18;;;3.78;;
69750;SDS011;57335;52.288;6.056;2023-04-24T03:40:31;8.35;;;3.22;;
69750;SDS011;57335;52.288;6.056;2023-04-24T03:42:57;10.93;;;3.72;;
69750;SDS011;57335;52.288;6.056;2023-04-24T03:45:24;9.95;;;3.42;;
69750;SDS011;57335;52.288;6.056;2023-04-24T03:47:50;9.50;;;3.38;;
69750;SDS011;57335;52.288;6.056;2023-04-24T03:50:16;9.18;;;3.53;;
69750;SDS011;57335;52.288;6.056;2023-04-24T03:52:43;9.57;;;4.10;;
69750;SDS011;57335;52.288;6.056;2023-04-24T03:55:09;10.40;;;4.10;;
69750;SDS011;57335;52.288;6.056;2023-04-24T03:57:36;9.45;;;3.90;;
69750;SDS011;57335;52.288;6.056;2023-04-24T04:00:02;10.07;;;3.83;;
69750;SDS011;57335;52.288;6.056;2023-04-24T04:02:29;10.23;;;3.80;;
69750;SDS011;57335;52.288;6.056;2023-04-24T04:04:56;11.90;;;4.15;;
69750;SDS011;57335;52.288;6.056;2023-04-24T04:07:22;10.30;;;3.97;;
69750;SDS011;57335;52.288;6.056;2023-04-24T04:09:48;9.80;;;3.88;;
69750;SDS011;57335;52.288;6.056;2023-04-24T04:12:15;10.25;;;3.70;;
69750;SDS011;57335;52.288;6.056;2023-04-24T04:14:41;10.70;;;4.00;;
69750;SDS011;57335;52.288;6.056;2023-04-24T04:17:07;12.40;;;4.45;;
69750;SDS011;57335;52.288;6.056;2023-04-24T04:19:34;11.20;;;4.00;;
69750;SDS011;57335;52.288;6.056;2023-04-24T04:22:00;10.30;;;3.65;;
69750;SDS011;57335;52.288;6.056;2023-04-24T04:24:27;11.35;;;3.53;;
69750;SDS011;57335;52.288;6.056;2023-04-24T04:26:53;9.45;;;3.50;;
69750;SDS011;57335;52.288;6.056;2023-04-24T04:29:19;10.52;;;3.35;;
69750;SDS011;57335;52.288;6.056;2023-04-24T04:31:46;8.85;;;3.25;;
69750;SDS011;57335;52.288;6.056;2023-04-24T04:34:12;9.30;;;2.92;;
69750;SDS011;57335;52.288;6.056;2023-04-24T04:36:39;9.30;;;3.47;;
69750;SDS011;57335;52.288;6.056;2023-04-24T04:39:06;8.82;;;3.17;;
69750;SDS011;57335;52.288;6.056;2023-04-24T04:41:32;8.60;;;3.10;;
69750;SDS011;57335;52.288;6.056;2023-04-24T04:43:59;9.40;;;3.45;;
69750;SDS011;57335;52.288;6.056;2023-04-24T04:46:25;8.50;;;3.13;;
69750;SDS011;57335;52.288;6.056;2023-04-24T04:48:52;8.98;;;3.30;;
69750;SDS011;57335;52.288;6.056;2023-04-24T04:51:19;10.32;;;3.65;;
69750;SDS011;57335;52.288;6.056;2023-04-24T04:53:45;9.15;;;3.40;;
69750;SDS011;57335;52.288;6.056;2023-04-24T04:56:12;8.82;;;3.10;;
69750;SDS011;57335;52.288;6.056;2023-04-24T04:58:38;8.18;;;2.67;;
69750;SDS011;57335;52.288;6.056;2023-04-24T05:01:05;7.50;;;2.70;;
69750;SDS011;57335;52.288;6.056;2023-04-24T05:03:31;6.13;;;2.08;;
69750;SDS011;57335;52.288;6.056;2023-04-24T05:05:58;6.63;;;2.47;;
69750;SDS011;57335;52.288;6.056;2023-04-24T05:08:24;7.05;;;2.45;;
69750;SDS011;57335;52.288;6.056;2023-04-24T05:10:53;6.80;;;2.45;;
69750;SDS011;57335;52.288;6.056;2023-04-24T05:13:20;7.95;;;2.42;;
69750;SDS011;57335;52.288;6.056;2023-04-24T05:16:04;6.22;;;1.92;;
69750;SDS011;57335;52.288;6.056;2023-04-24T05:18:30;6.28;;;2.10;;
69750;SDS011;57335;52.288;6.056;2023-04-24T05:20:56;6.97;;;2.42;;
69750;SDS011;57335;52.288;6.056;2023-04-24T05:23:23;6.43;;;2.20;;
69750;SDS011;57335;52.288;6.056;2023-04-24T05:25:49;6.55;;;2.40;;
69750;SDS011;57335;52.288;6.056;2023-04-24T05:28:16;6.53;;;2.47;;
69750;SDS011;57335;52.288;6.056;2023-04-24T05:30:42;8.82;;;3.08;;
69750;SDS011;57335;52.288;6.056;2023-04-24T05:33:09;8.60;;;2.92;;
69750;SDS011;57335;52.288;6.056;2023-04-24T05:35:35;7.05;;;2.63;;
69750;SDS011;57335;52.288;6.056;2023-04-24T05:38:01;7.45;;;2.92;;
69750;SDS011;57335;52.288;6.056;2023-04-24T05:40:28;7.97;;;2.70;;
69750;SDS011;57335;52.288;6.056;2023-04-24T05:42:54;6.85;;;2.42;;
69750;SDS011;57335;52.288;6.056;2023-04-24T05:45:21;8.00;;;2.88;;
69750;SDS011;57335;52.288;6.056;2023-04-24T05:47:47;7.50;;;2.35;;
69750;SDS011;57335;52.288;6.056;2023-04-24T05:50:13;7.15;;;2.13;;
69750;SDS011;57335;52.288;6.056;2023-04-24T05:52:40;6.97;;;2.28;;
69750;SDS011;57335;52.288;6.056;2023-04-24T05:55:06;6.15;;;2.17;;
69750;SDS011;57335;52.288;6.056;2023-04-24T05:57:33;6.28;;;1.90;;
69750;SDS011;57335;52.288;6.056;2023-04-24T05:59:59;4.07;;;1.40;;
69750;SDS011;57335;52.288;6.056;2023-04-24T06:02:26;4.75;;;1.65;;
69750;SDS011;57335;52.288;6.056;2023-04-24T06:04:52;3.53;;;1.52;;
69750;SDS011;57335;52.288;6.056;2023-04-24T06:07:19;3.55;;;1.30;;
69750;SDS011;57335;52.288;6.056;2023-04-24T06:09:45;2.72;;;1.20;;
69750;SDS011;57335;52.288;6.056;2023-04-24T06:12:11;4.13;;;1.20;;
69750;SDS011;57335;52.288;6.056;2023-04-24T06:14:38;4.28;;;1.42;;
69750;SDS011;57335;52.288;6.056;2023-04-24T06:17:04;2.58;;;1.13;;
69750;SDS011;57335;52.288;6.056;2023-04-24T06:19:31;3.95;;;1.45;;
69750;SDS011;57335;52.288;6.056;2023-04-24T06:21:57;5.78;;;1.60;;
69750;SDS011;57335;52.288;6.056;2023-04-24T06:24:26;5.00;;;1.60;;
69750;SDS011;57335;52.288;6.056;2023-04-24T06:26:53;5.63;;;1.90;;
69750;SDS011;57335;52.288;6.056;2023-04-24T06:29:20;4.97;;;1.80;;
69750;SDS011;57335;52.288;6.056;2023-04-24T06:31:46;6.78;;;2.00;;
69750;SDS011;57335;52.288;6.056;2023-04-24T06:34:13;6.90;;;2.20;;
69750;SDS011;57335;52.288;6.056;2023-04-24T06:36:39;5.72;;;1.90;;
69750;SDS011;57335;52.288;6.056;2023-04-24T06:39:06;7.18;;;2.45;;
69750;SDS011;57335;52.288;6.056;2023-04-24T06:41:32;7.00;;;2.40;;
69750;SDS011;57335;52.288;6.056;2023-04-24T06:43:58;8.10;;;2.28;;
69750;SDS011;57335;52.288;6.056;2023-04-24T06:46:25;7.50;;;2.55;;
69750;SDS011;57335;52.288;6.056;2023-04-24T06:48:52;7.18;;;2.40;;
69750;SDS011;57335;52.288;6.056;2023-04-24T06:51:18;8.70;;;2.60;;
69750;SDS011;57335;52.288;6.056;2023-04-24T06:53:45;8.57;;;2.60;;
69750;SDS011;57335;52.288;6.056;2023-04-24T06:56:14;9.07;;;3.03;;
69750;SDS011;57335;52.288;6.056;2023-04-24T06:58:40;8.27;;;2.70;;
69750;SDS011;57335;52.288;6.056;2023-04-24T07:01:07;7.43;;;2.40;;
69750;SDS011;57335;52.288;6.056;2023-04-24T07:03:33;8.32;;;2.65;;
69750;SDS011;57335;52.288;6.056;2023-04-24T07:06:00;11.38;;;2.63;;
69750;SDS011;57335;52.288;6.056;2023-04-24T07:08:26;6.95;;;2.30;;
69750;SDS011;57335;52.288;6.056;2023-04-24T07:10:52;7.90;;;2.13;;
69750;SDS011;57335;52.288;6.056;2023-04-24T07:13:19;6.57;;;2.33;;
69750;SDS011;57335;52.288;6.056;2023-04-24T07:15:45;7.85;;;2.40;;
69750;SDS011;57335;52.288;6.056;2023-04-24T07:18:12;8.70;;;2.00;;
69750;SDS011;57335;52.288;6.056;2023-04-24T07:20:38;6.90;;;2.30;;
69750;SDS011;57335;52.288;6.056;2023-04-24T07:23:05;6.13;;;2.20;;
69750;SDS011;57335;52.288;6.056;2023-04-24T07:25:31;6.75;;;2.30;;
69750;SDS011;57335;52.288;6.056;2023-04-24T07:27:57;6.72;;;2.13;;
69750;SDS011;57335;52.288;6.056;2023-04-24T07:30:24;7.45;;;2.20;;
69750;SDS011;57335;52.288;6.056;2023-04-24T07:32:50;6.35;;;2.08;;
69750;SDS011;57335;52.288;6.056;2023-04-24T07:35:17;6.22;;;1.90;;
69750;SDS011;57335;52.288;6.056;2023-04-24T07:37:43;5.80;;;1.90;;
69750;SDS011;57335;52.288;6.056;2023-04-24T07:40:10;4.53;;;1.73;;
69750;SDS011;57335;52.288;6.056;2023-04-24T07:42:36;5.22;;;1.65;;
69750;SDS011;57335;52.288;6.056;2023-04-24T07:45:03;6.38;;;1.92;;
69750;SDS011;57335;52.288;6.056;2023-04-24T07:47:30;7.82;;;2.50;;
69750;SDS011;57335;52.288;6.056;2023-04-24T07:49:57;9.65;;;2.90;;
69750;SDS011;57335;52.288;6.056;2023-04-24T07:52:23;10.85;;;3.13;;
69750;SDS011;57335;52.288;6.056;2023-04-24T07:54:50;8.88;;;3.35;;
69750;SDS011;57335;52.288;6.056;2023-04-24T07:57:16;10.27;;;3.28;;
69750;SDS011;57335;52.288;6.056;2023-04-24T07:59:43;8.90;;;3.10;;
69750;SDS011;57335;52.288;6.056;2023-04-24T08:02:09;10.52;;;4.18;;
69750;SDS011;57335;52.288;6.056;2023-04-24T08:04:36;9.60;;;3.63;;
69750;SDS011;57335;52.288;6.056;2023-04-24T08:07:02;13.65;;;5.40;;
69750;SDS011;57335;52.288;6.056;2023-04-24T08:09:29;12.50;;;5.35;;
69750;SDS011;57335;52.288;6.056;2023-04-24T08:11:55;14.13;;;5.50;;
69750;SDS011;57335;52.288;6.056;2023-04-24T08:14:22;11.65;;;4.38;;
69750;SDS011;57335;52.288;6.056;2023-04-24T08:16:48;14.48;;;5.10;;
69750;SDS011;57335;52.288;6.056;2023-04-24T08:19:15;11.90;;;4.88;;
69750;SDS011;57335;52.288;6.056;2023-04-24T08:21:41;15.63;;;5.63;;
69750;SDS011;57335;52.288;6.056;2023-04-24T08:24:07;11.52;;;4.45;;
69750;SDS011;57335;52.288;6.056;2023-04-24T08:26:34;15.18;;;6.03;;
69750;SDS011;57335;52.288;6.056;2023-04-24T08:29:00;14.23;;;6.28;;
69750;SDS011;57335;52.288;6.056;2023-04-24T08:31:27;16.70;;;6.43;;
69750;SDS011;57335;52.288;6.056;2023-04-24T08:33:53;14.43;;;6.43;;
69750;SDS011;57335;52.288;6.056;2023-04-24T08:36:20;17.52;;;6.55;;
69750;SDS011;57335;52.288;6.056;2023-04-24T08:38:46;18.23;;;6.43;;
69750;SDS011;57335;52.288;6.056;2023-04-24T08:41:13;19.42;;;6.55;;
69750;SDS011;57335;52.288;6.056;2023-04-24T08:43:40;16.40;;;6.40;;
69750;SDS011;57335;52.288;6.056;2023-04-24T08:46:07;17.73;;;6.28;;
69750;SDS011;57335;52.288;6.056;2023-04-24T08:48:37;14.00;;;5.88;;
69750;SDS011;57335;52.288;6.056;2023-04-24T08:51:06;14.30;;;6.20;;
69750;SDS011;57335;52.288;6.056;2023-04-24T08:53:34;17.33;;;6.05;;
69750;SDS011;57335;52.288;6.056;2023-04-24T08:56:02;16.70;;;6.43;;
69750;SDS011;57335;52.288;6.056;2023-04-24T08:58:28;15.25;;;5.80;;
69750;SDS011;57335;52.288;6.056;2023-04-24T09:00:56;14.55;;;5.82;;
69750;SDS011;57335;52.288;6.056;2023-04-24T09:03:23;13.82;;;5.65;;
69750;SDS011;57335;52.288;6.056;2023-04-24T09:05:51;15.55;;;5.97;;
69750;SDS011;57335;52.288;6.056;2023-04-24T09:08:18;19.05;;;6.55;;
69750;SDS011;57335;52.288;6.056;2023-04-24T09:10:45;13.88;;;5.60;;
69750;SDS011;57335;52.288;6.056;2023-04-24T09:13:16;14.43;;;5.90;;
69750;SDS011;57335;52.288;6.056;2023-04-24T09:15:43;16.65;;;6.20;;
69750;SDS011;57335;52.288;6.056;2023-04-24T09:18:10;19.20;;;5.60;;
69750;SDS011;57335;52.288;6.056;2023-04-24T09:20:56;15.65;;;5.18;;
69750;SDS011;57335;52.288;6.056;2023-04-24T09:23:23;15.55;;;5.70;;
69750;SDS011;57335;52.288;6.056;2023-04-24T09:25:54;11.52;;;5.30;;
69750;SDS011;57335;52.288;6.056;2023-04-24T09:28:24;14.88;;;5.25;;
69750;SDS011;57335;52.288;6.056;2023-04-24T09:31:06;15.75;;;6.20;;
69750;SDS011;57335;52.288;6.056;2023-04-24T09:36:41;13.38;;;5.10;;
69750;SDS011;57335;52.288;6.056;2023-04-24T09:39:09;9.60;;;3.80;;
69750;SDS011;57335;52.288;6.056;2023-04-24T09:41:52;11.45;;;4.05;;
69750;SDS011;57335;52.288;6.056;2023-04-24T09:44:20;10.95;;;3.70;;
69750;SDS011;57335;52.288;6.056;2023-04-24T09:46:52;12.05;;;3.60;;
69750;SDS011;57335;52.288;6.056;2023-04-24T09:49:24;11.73;;;3.30;;
69750;SDS011;57335;52.288;6.056;2023-04-24T09:52:06;9.98;;;2.90;;
69750;SDS011;57335;52.288;6.056;2023-04-24T09:54:34;10.55;;;3.08;;
69750;SDS011;57335;52.288;6.056;2023-04-24T09:57:00;9.13;;;2.53;;
69750;SDS011;57335;52.288;6.056;2023-04-24T09:59:27;9.65;;;2.28;;
69750;SDS011;57335;52.288;6.056;2023-04-24T10:01:54;11.93;;;2.70;;
69750;SDS011;57335;52.288;6.056;2023-04-24T10:04:22;9.80;;;2.58;;
69750;SDS011;57335;52.288;6.056;2023-04-24T10:06:50;9.82;;;2.75;;
69750;SDS011;57335;52.288;6.056;2023-04-24T10:09:18;11.98;;;2.85;;
69750;SDS011;57335;52.288;6.056;2023-04-24T10:11:47;11.65;;;2.78;;
69750;SDS011;57335;52.288;6.056;2023-04-24T10:14:18;15.85;;;3.42;;
69750;SDS011;57335;52.288;6.056;2023-04-24T10:16:46;12.73;;;3.03;;
69750;SDS011;57335;52.288;6.056;2023-04-24T10:19:14;11.32;;;2.58;;
69750;SDS011;57335;52.288;6.056;2023-04-24T10:21:41;11.70;;;2.70;;
69750;SDS011;57335;52.288;6.056;2023-04-24T10:24:09;10.07;;;2.92;;
69750;SDS011;57335;52.288;6.056;2023-04-24T10:26:37;12.93;;;2.83;;
69750;SDS011;57335;52.288;6.056;2023-04-24T10:29:05;7.97;;;2.80;;
69750;SDS011;57335;52.288;6.056;2023-04-24T10:31:31;13.35;;;3.25;;
69750;SDS011;57335;52.288;6.056;2023-04-24T10:33:58;9.85;;;2.75;;
69750;SDS011;57335;52.288;6.056;2023-04-24T10:36:27;13.70;;;3.15;;
69750;SDS011;57335;52.288;6.056;2023-04-24T10:38:56;11.85;;;2.47;;
69750;SDS011;57335;52.288;6.056;2023-04-24T10:41:25;9.55;;;2.42;;
69750;SDS011;57335;52.288;6.056;2023-04-24T10:44:05;6.30;;;1.88;;
69750;SDS011;57335;52.288;6.056;2023-04-24T10:46:32;8.25;;;1.90;;
69750;SDS011;57335;52.288;6.056;2023-04-24T10:48:59;6.35;;;1.90;;
69750;SDS011;57335;52.288;6.056;2023-04-24T10:57:25;7.85;;;2.05;;
69750;SDS011;57335;52.288;6.056;2023-04-24T11:00:09;9.43;;;2.08;;
69750;SDS011;57335;52.288;6.056;2023-04-24T11:02:41;8.73;;;2.20;;
69750;SDS011;57335;52.288;6.056;2023-04-24T11:05:08;6.88;;;1.90;;
69750;SDS011;57335;52.288;6.056;2023-04-24T11:10:39;9.32;;;2.25;;
69750;SDS011;57335;52.288;6.056;2023-04-24T11:13:06;7.80;;;2.00;;
69750;SDS011;57335;52.288;6.056;2023-04-24T11:15:33;10.93;;;2.03;;
69750;SDS011;57335;52.288;6.056;2023-04-24T11:17:59;9.45;;;2.20;;
69750;SDS011;57335;52.288;6.056;2023-04-24T11:20:26;9.07;;;2.55;;
69750;SDS011;57335;52.288;6.056;2023-04-24T11:22:54;10.75;;;2.50;;
69750;SDS011;57335;52.288;6.056;2023-04-24T11:25:21;6.90;;;1.83;;
69750;SDS011;57335;52.288;6.056;2023-04-24T11:27:48;8.98;;;2.10;;
69750;SDS011;57335;52.288;6.056;2023-04-24T11:30:19;8.90;;;2.30;;
69750;SDS011;57335;52.288;6.056;2023-04-24T11:32:52;9.00;;;2.15;;
69750;SDS011;57335;52.288;6.056;2023-04-24T11:35:20;8.65;;;2.25;;
69750;SDS011;57335;52.288;6.056;2023-04-24T11:37:48;7.00;;;2.30;;
69750;SDS011;57335;52.288;6.056;2023-04-24T11:40:19;8.98;;;2.22;;
69750;SDS011;57335;52.288;6.056;2023-04-24T11:42:47;8.40;;;2.10;;
69750;SDS011;57335;52.288;6.056;2023-04-24T11:45:32;4.28;;;1.60;;
69750;SDS011;57335;52.288;6.056;2023-04-24T11:47:58;8.00;;;1.58;;
69750;SDS011;57335;52.288;6.056;2023-04-24T11:50:25;4.75;;;1.30;;
69750;SDS011;57335;52.288;6.056;2023-04-24T11:52:52;2.45;;;1.10;;
69750;SDS011;57335;52.288;6.056;2023-04-24T11:57:47;3.72;;;1.23;;
69750;SDS011;57335;52.288;6.056;2023-04-24T12:00:28;3.50;;;1.30;;
69750;SDS011;57335;52.288;6.056;2023-04-24T12:03:18;4.75;;;1.05;;
69750;SDS011;57335;52.288;6.056;2023-04-24T12:05:43;4.72;;;1.30;;
69750;SDS011;57335;52.288;6.056;2023-04-24T12:08:10;3.17;;;1.10;;
69750;SDS011;57335;52.288;6.056;2023-04-24T12:10:36;3.67;;;1.30;;
69750;SDS011;57335;52.288;6.056;2023-04-24T12:13:03;5.60;;;1.45;;
69750;SDS011;57335;52.288;6.056;2023-04-24T12:15:29;5.68;;;1.63;;
69750;SDS011;57335;52.288;6.056;2023-04-24T12:17:55;3.67;;;1.38;;
69750;SDS011;57335;52.288;6.056;2023-04-24T12:20:32;4.65;;;1.60;;
69750;SDS011;57335;52.288;6.056;2023-04-24T12:22:59;3.85;;;1.40;;
69750;SDS011;57335;52.288;6.056;2023-04-24T12:25:32;4.03;;;1.35;;
69750;SDS011;57335;52.288;6.056;2023-04-24T12:30:30;4.43;;;1.20;;
69750;SDS011;57335;52.288;6.056;2023-04-24T12:32:58;2.88;;;1.50;;
69750;SDS011;57335;52.288;6.056;2023-04-24T12:35:26;4.10;;;1.17;;
69750;SDS011;57335;52.288;6.056;2023-04-24T12:37:54;4.65;;;1.65;;
69750;SDS011;57335;52.288;6.056;2023-04-24T12:40:21;4.05;;;1.27;;
69750;SDS011;57335;52.288;6.056;2023-04-24T12:42:49;4.97;;;1.30;;
69750;SDS011;57335;52.288;6.056;2023-04-24T12:45:16;4.68;;;1.20;;
69750;SDS011;57335;52.288;6.056;2023-04-24T12:47:44;3.78;;;1.00;;
69750;SDS011;57335;52.288;6.056;2023-04-24T12:50:12;3.92;;;1.30;;
69750;SDS011;57335;52.288;6.056;2023-04-24T12:52:40;3.22;;;0.98;;
69750;SDS011;57335;52.288;6.056;2023-04-24T12:55:07;1.70;;;0.80;;
69750;SDS011;57335;52.288;6.056;2023-04-24T12:57:35;4.45;;;1.08;;
69750;SDS011;57335;52.288;6.056;2023-04-24T13:00:04;3.30;;;0.85;;
69750;SDS011;57335;52.288;6.056;2023-04-24T13:02:31;2.58;;;0.82;;
69750;SDS011;57335;52.288;6.056;2023-04-24T13:04:59;3.75;;;1.00;;
69750;SDS011;57335;52.288;6.056;2023-04-24T13:07:25;3.72;;;1.15;;
69750;SDS011;57335;52.288;6.056;2023-04-24T13:09:54;3.03;;;1.02;;
69750;SDS011;57335;52.288;6.056;2023-04-24T13:12:21;6.55;;;1.23;;
69750;SDS011;57335;52.288;6.056;2023-04-24T13:14:47;4.75;;;1.13;;
69750;SDS011;57335;52.288;6.056;2023-04-24T13:17:14;4.00;;;1.30;;
69750;SDS011;57335;52.288;6.056;2023-04-24T13:19:41;6.05;;;1.20;;
69750;SDS011;57335;52.288;6.056;2023-04-24T13:22:10;5.75;;;1.17;;
69750;SDS011;57335;52.288;6.056;2023-04-24T13:24:37;4.85;;;1.00;;
69750;SDS011;57335;52.288;6.056;2023-04-24T13:27:05;5.68;;;1.23;;
69750;SDS011;57335;52.288;6.056;2023-04-24T13:29:31;3.15;;;1.00;;
69750;SDS011;57335;52.288;6.056;2023-04-24T13:31:58;2.95;;;1.02;;
69750;SDS011;57335;52.288;6.056;2023-04-24T13:34:24;3.80;;;1.30;;
69750;SDS011;57335;52.288;6.056;2023-04-24T13:36:52;3.15;;;1.02;;
69750;SDS011;57335;52.288;6.056;2023-04-24T13:39:20;6.30;;;1.25;;
69750;SDS011;57335;52.288;6.056;2023-04-24T13:41:48;4.88;;;1.20;;
69750;SDS011;57335;52.288;6.056;2023-04-24T13:44:15;6.45;;;1.20;;
69750;SDS011;57335;52.288;6.056;2023-04-24T13:46:43;4.47;;;1.30;;
69750;SDS011;57335;52.288;6.056;2023-04-24T13:49:14;3.85;;;1.10;;
69750;SDS011;57335;52.288;6.056;2023-04-24T13:51:41;5.38;;;1.30;;
69750;SDS011;57335;52.288;6.056;2023-04-24T13:54:08;6.35;;;1.65;;
69750;SDS011;57335;52.288;6.056;2023-04-24T13:56:35;7.07;;;1.60;;
69750;SDS011;57335;52.288;6.056;2023-04-24T13:59:01;6.32;;;1.60;;
69750;SDS011;57335;52.288;6.056;2023-04-24T14:01:27;6.70;;;1.50;;
69750;SDS011;57335;52.288;6.056;2023-04-24T14:03:54;7.80;;;1.83;;
69750;SDS011;57335;52.288;6.056;2023-04-24T14:06:22;11.60;;;2.30;;
69750;SDS011;57335;52.288;6.056;2023-04-24T14:08:48;6.65;;;1.65;;
69750;SDS011;57335;52.288;6.056;2023-04-24T14:11:16;7.68;;;2.15;;
69750;SDS011;57335;52.288;6.056;2023-04-24T14:13:43;6.35;;;1.92;;
69750;SDS011;57335;52.288;6.056;2023-04-24T14:16:10;9.00;;;1.85;;
69750;SDS011;57335;52.288;6.056;2023-04-24T14:18:37;7.95;;;2.25;;
69750;SDS011;57335;52.288;6.056;2023-04-24T14:21:04;8.40;;;2.25;;
69750;SDS011;57335;52.288;6.056;2023-04-24T14:23:31;9.85;;;1.90;;
69750;SDS011;57335;52.288;6.056;2023-04-24T14:25:57;8.98;;;1.80;;
69750;SDS011;57335;52.288;6.056;2023-04-24T14:28:24;9.05;;;1.85;;
69750;SDS011;57335;52.288;6.056;2023-04-24T14:30:51;8.10;;;1.92;;
69750;SDS011;57335;52.288;6.056;2023-04-24T14:33:17;14.30;;;2.00;;
69750;SDS011;57335;52.288;6.056;2023-04-24T14:35:44;6.80;;;1.88;;
69750;SDS011;57335;52.288;6.056;2023-04-24T14:38:10;9.65;;;2.20;;
69750;SDS011;57335;52.288;6.056;2023-04-24T14:40:37;7.43;;;1.88;;
69750;SDS011;57335;52.288;6.056;2023-04-24T14:43:23;12.52;;;2.00;;
69750;SDS011;57335;52.288;6.056;2023-04-24T14:45:50;9.48;;;1.90;;
69750;SDS011;57335;52.288;6.056;2023-04-24T14:48:16;9.88;;;2.20;;
69750;SDS011;57335;52.288;6.056;2023-04-24T14:50:42;8.65;;;2.38;;
69750;SDS011;57335;52.288;6.056;2023-04-24T14:53:09;10.35;;;2.30;;
69750;SDS011;57335;52.288;6.056;2023-04-24T14:55:35;9.68;;;2.00;;
69750;SDS011;57335;52.288;6.056;2023-04-24T14:58:02;10.57;;;2.35;;
69750;SDS011;57335;52.288;6.056;2023-04-24T15:00:29;11.95;;;2.08;;